82TE weather

CLOSED Tarry Bank Airport
Leon Springs, Texas, United States

Public forecast

Using degrees Fahrenheit for public forecast. Weather courtesy of forecast.io.

Closest aviation weather report (METAR) to Tarry Bank Airport

Closest report is Boerne Stage Field, 2.1 nm (3.8 km) NNE. Retrieved 2019/11/18 12:35 UTC (8 minutes ago):

K5C1 181235Z AUTO 00000KT 10SM CLR 07/05 A3003 RMK AO1

Closest aviation forecast (TAF) to Tarry Bank Airport

Closest forecast is San Antonio International Airport, 15.6 nm (28.9 km) SE. Retrieved 2019/11/18 12:22 UTC (21 minutes ago):

TAF KSAT 181120Z 1812/1918 29006KT P6SM BKN250